sensor_id;sensor_type;location;lat;lon;timestamp;pressure;altitude;pressure_sealevel;temperature
37536;BMP180;23379;51.554;6.736;2023-02-27T00:02:18;102231.00;;;0.00
37536;BMP180;23379;51.554;6.736;2023-02-27T00:04:46;102248.00;;;-0.10
37536;BMP180;23379;51.554;6.736;2023-02-27T00:07:12;102255.00;;;0.10
37536;BMP180;23379;51.554;6.736;2023-02-27T00:09:37;102246.00;;;-0.10
37536;BMP180;23379;51.554;6.736;2023-02-27T00:12:04;102258.00;;;-0.10
37536;BMP180;23379;51.554;6.736;2023-02-27T00:14:29;102258.00;;;0.00
37536;BMP180;23379;51.554;6.736;2023-02-27T00:16:55;102260.00;;;0.00
37536;BMP180;23379;51.554;6.736;2023-02-27T00:19:20;102258.00;;;0.20
37536;BMP180;23379;51.554;6.736;2023-02-27T00:21:46;102253.00;;;0.30
37536;BMP180;23379;51.554;6.736;2023-02-27T00:24:11;102258.00;;;0.40
37536;BMP180;23379;51.554;6.736;2023-02-27T00:26:37;102223.00;;;0.40
37536;BMP180;23379;51.554;6.736;2023-02-27T00:29:03;102237.00;;;0.30
37536;BMP180;23379;51.554;6.736;2023-02-27T00:31:28;102248.00;;;0.10
37536;BMP180;23379;51.554;6.736;2023-02-27T00:33:54;102224.00;;;0.20
37536;BMP180;23379;51.554;6.736;2023-02-27T00:36:19;102253.00;;;0.20
37536;BMP180;23379;51.554;6.736;2023-02-27T00:38:45;102249.00;;;0.00
37536;BMP180;23379;51.554;6.736;2023-02-27T00:41:10;102241.00;;;0.20
37536;BMP180;23379;51.554;6.736;2023-02-27T00:43:35;102241.00;;;0.10
37536;BMP180;23379;51.554;6.736;2023-02-27T00:46:01;102233.00;;;0.10
37536;BMP180;23379;51.554;6.736;2023-02-27T00:48:26;102186.00;;;0.00
37536;BMP180;23379;51.554;6.736;2023-02-27T00:50:52;102239.00;;;-0.10
37536;BMP180;23379;51.554;6.736;2023-02-27T00:53:17;102219.00;;;-0.10
37536;BMP180;23379;51.554;6.736;2023-02-27T00:55:42;102231.00;;;0.00
37536;BMP180;23379;51.554;6.736;2023-02-27T00:58:08;102239.00;;;-0.10
37536;BMP180;23379;51.554;6.736;2023-02-27T01:00:34;102233.00;;;-0.10
37536;BMP180;23379;51.554;6.736;2023-02-27T01:02:59;102229.00;;;0.00
37536;BMP180;23379;51.554;6.736;2023-02-27T01:05:24;102227.00;;;-0.10
37536;BMP180;23379;51.554;6.736;2023-02-27T01:07:49;102226.00;;;0.00
37536;BMP180;23379;51.554;6.736;2023-02-27T01:10:15;102229.00;;;0.00
37536;BMP180;23379;51.554;6.736;2023-02-27T01:12:41;102214.00;;;-0.10
37536;BMP180;23379;51.554;6.736;2023-02-27T01:15:07;102249.00;;;0.00
37536;BMP180;23379;51.554;6.736;2023-02-27T01:17:33;102249.00;;;0.10
37536;BMP180;23379;51.554;6.736;2023-02-27T01:19:58;102240.00;;;0.10
37536;BMP180;23379;51.554;6.736;2023-02-27T01:22:24;102242.00;;;0.30
37536;BMP180;23379;51.554;6.736;2023-02-27T01:24:49;102245.00;;;0.00
37536;BMP180;23379;51.554;6.736;2023-02-27T01:27:14;102236.00;;;0.10
37536;BMP180;23379;51.554;6.736;2023-02-27T01:29:40;102231.00;;;0.10
37536;BMP180;23379;51.554;6.736;2023-02-27T01:32:05;102229.00;;;0.10
37536;BMP180;23379;51.554;6.736;2023-02-27T01:34:31;102242.00;;;0.30
37536;BMP180;23379;51.554;6.736;2023-02-27T01:36:56;102242.00;;;0.20
37536;BMP180;23379;51.554;6.736;2023-02-27T01:39:21;102234.00;;;0.30
37536;BMP180;23379;51.554;6.736;2023-02-27T01:41:47;102232.00;;;0.30
37536;BMP180;23379;51.554;6.736;2023-02-27T01:44:13;102237.00;;;0.40
37536;BMP180;23379;51.554;6.736;2023-02-27T01:46:39;102223.00;;;0.20
37536;BMP180;23379;51.554;6.736;2023-02-27T01:49:09;102234.00;;;0.30
37536;BMP180;23379;51.554;6.736;2023-02-27T01:51:39;102199.00;;;0.40
37536;BMP180;23379;51.554;6.736;2023-02-27T01:54:07;102226.00;;;0.40
37536;BMP180;23379;51.554;6.736;2023-02-27T01:56:34;102227.00;;;0.20
37536;BMP180;23379;51.554;6.736;2023-02-27T01:59:03;102219.00;;;0.20
37536;BMP180;23379;51.554;6.736;2023-02-27T02:01:30;102211.00;;;0.00
37536;BMP180;23379;51.554;6.736;2023-02-27T02:04:35;102245.00;;;0.00
37536;BMP180;23379;51.554;6.736;2023-02-27T02:07:04;102238.00;;;0.00
37536;BMP180;23379;51.554;6.736;2023-02-27T02:09:33;102230.00;;;0.00
37536;BMP180;23379;51.554;6.736;2023-02-27T02:12:00;102217.00;;;0.00
37536;BMP180;23379;51.554;6.736;2023-02-27T02:14:25;102197.00;;;-0.10
37536;BMP180;23379;51.554;6.736;2023-02-27T02:25:47;102208.00;;;0.00
37536;BMP180;23379;51.554;6.736;2023-02-27T02:33:39;102236.00;;;-0.20
37536;BMP180;23379;51.554;6.736;2023-02-27T02:41:59;102234.00;;;-0.20
37536;BMP180;23379;51.554;6.736;2023-02-27T02:44:38;102227.00;;;-0.20
37536;BMP180;23379;51.554;6.736;2023-02-27T02:47:19;102245.00;;;-0.20
37536;BMP180;23379;51.554;6.736;2023-02-27T02:50:02;102245.00;;;-0.10
37536;BMP180;23379;51.554;6.736;2023-02-27T02:52:56;102222.00;;;-0.20
37536;BMP180;23379;51.554;6.736;2023-02-27T03:01:09;102246.00;;;-0.30
37536;BMP180;23379;51.554;6.736;2023-02-27T03:03:40;102251.00;;;-0.20
37536;BMP180;23379;51.554;6.736;2023-02-27T03:06:20;102252.00;;;-0.10
37536;BMP180;23379;51.554;6.736;2023-02-27T03:08:56;102243.00;;;-0.10
37536;BMP180;23379;51.554;6.736;2023-02-27T03:11:26;102183.00;;;-0.10
37536;BMP180;23379;51.554;6.736;2023-02-27T03:13:56;102229.00;;;-0.10
37536;BMP180;23379;51.554;6.736;2023-02-27T03:16:31;102240.00;;;-0.20
37536;BMP180;23379;51.554;6.736;2023-02-27T03:19:06;102255.00;;;-0.40
37536;BMP180;23379;51.554;6.736;2023-02-27T03:21:58;102265.00;;;-0.20
37536;BMP180;23379;51.554;6.736;2023-02-27T03:24:31;102243.00;;;-0.50
37536;BMP180;23379;51.554;6.736;2023-02-27T03:26:57;102182.00;;;-0.60
37536;BMP180;23379;51.554;6.736;2023-02-27T03:29:42;102257.00;;;-0.60
37536;BMP180;23379;51.554;6.736;2023-02-27T03:32:22;102251.00;;;-0.40
37536;BMP180;23379;51.554;6.736;2023-02-27T03:34:48;102247.00;;;-0.60
37536;BMP180;23379;51.554;6.736;2023-02-27T03:40:14;102255.00;;;-0.90
37536;BMP180;23379;51.554;6.736;2023-02-27T03:43:16;102262.00;;;-0.80
37536;BMP180;23379;51.554;6.736;2023-02-27T03:45:55;102263.00;;;-0.50
37536;BMP180;23379;51.554;6.736;2023-02-27T03:48:23;102222.00;;;-0.70
37536;BMP180;23379;51.554;6.736;2023-02-27T03:50:48;102252.00;;;-0.90
37536;BMP180;23379;51.554;6.736;2023-02-27T03:53:27;102239.00;;;-0.90
37536;BMP180;23379;51.554;6.736;2023-02-27T03:55:55;102256.00;;;-0.90
37536;BMP180;23379;51.554;6.736;2023-02-27T03:58:22;102262.00;;;-0.70
37536;BMP180;23379;51.554;6.736;2023-02-27T04:00:48;102251.00;;;-0.70
37536;BMP180;23379;51.554;6.736;2023-02-27T04:03:14;102259.00;;;-0.80
37536;BMP180;23379;51.554;6.736;2023-02-27T04:05:39;102250.00;;;-0.70
37536;BMP180;23379;51.554;6.736;2023-02-27T04:13:57;102266.00;;;-1.10
37536;BMP180;23379;51.554;6.736;2023-02-27T04:16:38;102257.00;;;-1.20
37536;BMP180;23379;51.554;6.736;2023-02-27T04:19:17;102241.00;;;-1.20
37536;BMP180;23379;51.554;6.736;2023-02-27T04:28:10;102265.00;;;-0.80
37536;BMP180;23379;51.554;6.736;2023-02-27T04:30:54;102266.00;;;-0.60
37536;BMP180;23379;51.554;6.736;2023-02-27T04:36:24;102262.00;;;-0.60
37536;BMP180;23379;51.554;6.736;2023-02-27T04:41:38;102265.00;;;-0.30
37536;BMP180;23379;51.554;6.736;2023-02-27T04:44:07;102269.00;;;-0.50
37536;BMP180;23379;51.554;6.736;2023-02-27T04:46:35;102272.00;;;-0.70
37536;BMP180;23379;51.554;6.736;2023-02-27T04:49:06;102265.00;;;-0.80
37536;BMP180;23379;51.554;6.736;2023-02-27T04:52:12;102280.00;;;-0.70
37536;BMP180;23379;51.554;6.736;2023-02-27T04:54:44;102278.00;;;-0.60
37536;BMP180;23379;51.554;6.736;2023-02-27T04:57:17;102297.00;;;-0.90
37536;BMP180;23379;51.554;6.736;2023-02-27T04:59:47;102268.00;;;-0.90
37536;BMP180;23379;51.554;6.736;2023-02-27T05:02:22;102272.00;;;-1.00
37536;BMP180;23379;51.554;6.736;2023-02-27T05:04:51;102282.00;;;-0.90
37536;BMP180;23379;51.554;6.736;2023-02-27T05:07:19;102288.00;;;-0.90
37536;BMP180;23379;51.554;6.736;2023-02-27T05:10:16;102273.00;;;-0.90
37536;BMP180;23379;51.554;6.736;2023-02-27T05:13:08;102239.00;;;-1.00
37536;BMP180;23379;51.554;6.736;2023-02-27T05:15:44;102280.00;;;-0.50
37536;BMP180;23379;51.554;6.736;2023-02-27T05:18:14;102281.00;;;-0.90
37536;BMP180;23379;51.554;6.736;2023-02-27T05:20:50;102261.00;;;-0.90
37536;BMP180;23379;51.554;6.736;2023-02-27T05:23:24;102290.00;;;-0.80
37536;BMP180;23379;51.554;6.736;2023-02-27T05:28:41;102297.00;;;-0.80
37536;BMP180;23379;51.554;6.736;2023-02-27T05:31:31;102296.00;;;-0.50
37536;BMP180;23379;51.554;6.736;2023-02-27T05:35:13;102284.00;;;-0.70
37536;BMP180;23379;51.554;6.736;2023-02-27T05:37:33;102305.00;;;-0.60
37536;BMP180;23379;51.554;6.736;2023-02-27T05:40:03;102276.00;;;-0.60
37536;BMP180;23379;51.554;6.736;2023-02-27T05:42:37;102293.00;;;-0.70
37536;BMP180;23379;51.554;6.736;2023-02-27T05:45:18;102306.00;;;-0.90
37536;BMP180;23379;51.554;6.736;2023-02-27T05:51:01;102277.00;;;-0.90
37536;BMP180;23379;51.554;6.736;2023-02-27T05:53:32;102318.00;;;-0.80
37536;BMP180;23379;51.554;6.736;2023-02-27T05:56:00;102318.00;;;-0.70
37536;BMP180;23379;51.554;6.736;2023-02-27T05:58:56;102332.00;;;-0.60
37536;BMP180;23379;51.554;6.736;2023-02-27T06:01:19;102318.00;;;-0.60
37536;BMP180;23379;51.554;6.736;2023-02-27T06:03:44;102335.00;;;-0.70
37536;BMP180;23379;51.554;6.736;2023-02-27T06:06:13;102335.00;;;-0.50
37536;BMP180;23379;51.554;6.736;2023-02-27T06:08:39;102333.00;;;-0.90
37536;BMP180;23379;51.554;6.736;2023-02-27T06:11:05;102335.00;;;-0.80
37536;BMP180;23379;51.554;6.736;2023-02-27T06:13:30;102284.00;;;-0.60
37536;BMP180;23379;51.554;6.736;2023-02-27T06:15:56;102319.00;;;-0.80
37536;BMP180;23379;51.554;6.736;2023-02-27T06:18:21;102332.00;;;-1.10
37536;BMP180;23379;51.554;6.736;2023-02-27T06:20:47;102322.00;;;-1.20
37536;BMP180;23379;51.554;6.736;2023-02-27T06:23:13;102339.00;;;-1.30
37536;BMP180;23379;51.554;6.736;2023-02-27T06:25:38;102348.00;;;-1.20
37536;BMP180;23379;51.554;6.736;2023-02-27T06:28:06;102357.00;;;-0.90
37536;BMP180;23379;51.554;6.736;2023-02-27T06:30:32;102344.00;;;-1.00
37536;BMP180;23379;51.554;6.736;2023-02-27T06:32:57;102339.00;;;-1.00
37536;BMP180;23379;51.554;6.736;2023-02-27T06:35:23;102363.00;;;-0.60
37536;BMP180;23379;51.554;6.736;2023-02-27T06:37:49;102357.00;;;-0.60
37536;BMP180;23379;51.554;6.736;2023-02-27T06:40:15;102332.00;;;-0.40
37536;BMP180;23379;51.554;6.736;2023-02-27T06:42:41;102336.00;;;-0.70
37536;BMP180;23379;51.554;6.736;2023-02-27T06:45:08;102338.00;;;-0.60
37536;BMP180;23379;51.554;6.736;2023-02-27T06:47:36;102321.00;;;-0.90
37536;BMP180;23379;51.554;6.736;2023-02-27T06:50:02;102393.00;;;-0.80
37536;BMP180;23379;51.554;6.736;2023-02-27T06:52:29;102293.00;;;-0.90
37536;BMP180;23379;51.554;6.736;2023-02-27T06:54:55;102385.00;;;-1.00
37536;BMP180;23379;51.554;6.736;2023-02-27T06:57:20;102344.00;;;-0.70
37536;BMP180;23379;51.554;6.736;2023-02-27T06:59:45;102389.00;;;-0.60
37536;BMP180;23379;51.554;6.736;2023-02-27T07:02:12;102386.00;;;-0.60
37536;BMP180;23379;51.554;6.736;2023-02-27T07:04:37;102343.00;;;-0.70
37536;BMP180;23379;51.554;6.736;2023-02-27T07:07:03;102367.00;;;-0.70
37536;BMP180;23379;51.554;6.736;2023-02-27T07:09:28;102403.00;;;-0.50
37536;BMP180;23379;51.554;6.736;2023-02-27T07:11:53;102385.00;;;-0.50
37536;BMP180;23379;51.554;6.736;2023-02-27T07:14:19;102375.00;;;-0.30
37536;BMP180;23379;51.554;6.736;2023-02-27T07:16:44;102368.00;;;-0.30
37536;BMP180;23379;51.554;6.736;2023-02-27T07:19:15;102357.00;;;0.00
37536;BMP180;23379;51.554;6.736;2023-02-27T07:21:40;102342.00;;;0.10
37536;BMP180;23379;51.554;6.736;2023-02-27T07:24:06;102405.00;;;0.30
37536;BMP180;23379;51.554;6.736;2023-02-27T07:26:31;102386.00;;;0.40
37536;BMP180;23379;51.554;6.736;2023-02-27T07:28:57;102361.00;;;0.50
37536;BMP180;23379;51.554;6.736;2023-02-27T07:31:22;102348.00;;;0.30
37536;BMP180;23379;51.554;6.736;2023-02-27T07:33:47;102413.00;;;0.70
37536;BMP180;23379;51.554;6.736;2023-02-27T07:36:13;102418.00;;;0.90
37536;BMP180;23379;51.554;6.736;2023-02-27T07:38:38;102374.00;;;1.20
37536;BMP180;23379;51.554;6.736;2023-02-27T07:41:03;102401.00;;;1.20
37536;BMP180;23379;51.554;6.736;2023-02-27T07:43:29;102369.00;;;1.20
37536;BMP180;23379;51.554;6.736;2023-02-27T07:45:55;102430.00;;;1.30
37536;BMP180;23379;51.554;6.736;2023-02-27T07:48:21;102410.00;;;1.20
37536;BMP180;23379;51.554;6.736;2023-02-27T07:50:46;102320.00;;;1.50
37536;BMP180;23379;51.554;6.736;2023-02-27T07:53:12;102415.00;;;1.70
37536;BMP180;23379;51.554;6.736;2023-02-27T07:55:37;102345.00;;;1.70
37536;BMP180;23379;51.554;6.736;2023-02-27T07:58:03;102401.00;;;1.80
37536;BMP180;23379;51.554;6.736;2023-02-27T08:00:28;102414.00;;;1.90
37536;BMP180;23379;51.554;6.736;2023-02-27T08:02:53;102425.00;;;2.40
37536;BMP180;23379;51.554;6.736;2023-02-27T08:05:19;102400.00;;;2.20
37536;BMP180;23379;51.554;6.736;2023-02-27T08:07:44;102434.00;;;2.50
37536;BMP180;23379;51.554;6.736;2023-02-27T08:10:11;102442.00;;;2.70
37536;BMP180;23379;51.554;6.736;2023-02-27T08:12:36;102372.00;;;3.50
37536;BMP180;23379;51.554;6.736;2023-02-27T08:15:02;102405.00;;;3.70
37536;BMP180;23379;51.554;6.736;2023-02-27T08:17:28;102394.00;;;5.20
37536;BMP180;23379;51.554;6.736;2023-02-27T08:19:53;102436.00;;;5.20
37536;BMP180;23379;51.554;6.736;2023-02-27T08:22:18;102372.00;;;6.10
37536;BMP180;23379;51.554;6.736;2023-02-27T08:24:44;102404.00;;;6.20
37536;BMP180;23379;51.554;6.736;2023-02-27T08:27:10;102415.00;;;7.10
37536;BMP180;23379;51.554;6.736;2023-02-27T08:29:35;102409.00;;;7.90
37536;BMP180;23379;51.554;6.736;2023-02-27T08:32:01;102445.00;;;8.20
37536;BMP180;23379;51.554;6.736;2023-02-27T08:34:27;102450.00;;;8.40
37536;BMP180;23379;51.554;6.736;2023-02-27T08:36:53;102445.00;;;8.50
37536;BMP180;23379;51.554;6.736;2023-02-27T08:39:18;102366.00;;;9.00
37536;BMP180;23379;51.554;6.736;2023-02-27T08:41:44;102445.00;;;8.90
37536;BMP180;23379;51.554;6.736;2023-02-27T08:44:11;102435.00;;;10.00
37536;BMP180;23379;51.554;6.736;2023-02-27T08:46:37;102433.00;;;9.90
37536;BMP180;23379;51.554;6.736;2023-02-27T08:49:03;102456.00;;;9.60
37536;BMP180;23379;51.554;6.736;2023-02-27T08:51:28;102435.00;;;9.90
37536;BMP180;23379;51.554;6.736;2023-02-27T08:53:53;102416.00;;;10.10
37536;BMP180;23379;51.554;6.736;2023-02-27T08:56:23;102433.00;;;9.20
37536;BMP180;23379;51.554;6.736;2023-02-27T08:58:48;102406.00;;;10.40
37536;BMP180;23379;51.554;6.736;2023-02-27T09:01:14;102451.00;;;10.90
37536;BMP180;23379;51.554;6.736;2023-02-27T09:03:39;102374.00;;;10.70
37536;BMP180;23379;51.554;6.736;2023-02-27T09:06:05;102448.00;;;11.60
37536;BMP180;23379;51.554;6.736;2023-02-27T09:08:31;102418.00;;;11.60
37536;BMP180;23379;51.554;6.736;2023-02-27T09:10:56;102410.00;;;12.50
37536;BMP180;23379;51.554;6.736;2023-02-27T09:13:22;102439.00;;;12.90
37536;BMP180;23379;51.554;6.736;2023-02-27T09:15:47;102410.00;;;12.90
37536;BMP180;23379;51.554;6.736;2023-02-27T09:18:12;102369.00;;;13.40
37536;BMP180;23379;51.554;6.736;2023-02-27T09:20:38;102450.00;;;12.90
37536;BMP180;23379;51.554;6.736;2023-02-27T09:23:06;102415.00;;;13.50
37536;BMP180;23379;51.554;6.736;2023-02-27T09:25:31;102391.00;;;13.70
37536;BMP180;23379;51.554;6.736;2023-02-27T09:27:57;102434.00;;;12.50
37536;BMP180;23379;51.554;6.736;2023-02-27T09:30:22;102421.00;;;13.30
37536;BMP180;23379;51.554;6.736;2023-02-27T09:32:48;102450.00;;;12.80
37536;BMP180;23379;51.554;6.736;2023-02-27T09:35:14;102425.00;;;13.00
37536;BMP180;23379;51.554;6.736;2023-02-27T09:37:40;102437.00;;;13.10
37536;BMP180;23379;51.554;6.736;2023-02-27T09:40:06;102453.00;;;13.40
37536;BMP180;23379;51.554;6.736;2023-02-27T09:42:35;102456.00;;;13.50
37536;BMP180;23379;51.554;6.736;2023-02-27T09:45:05;102436.00;;;12.80
37536;BMP180;23379;51.554;6.736;2023-02-27T09:47:38;102449.00;;;12.10
37536;BMP180;23379;51.554;6.736;2023-02-27T09:52:33;102465.00;;;12.10
37536;BMP180;23379;51.554;6.736;2023-02-27T09:54:59;102458.00;;;12.50
37536;BMP180;23379;51.554;6.736;2023-02-27T09:57:43;102452.00;;;12.40
37536;BMP180;23379;51.554;6.736;2023-02-27T10:08:22;102399.00;;;12.00
37536;BMP180;23379;51.554;6.736;2023-02-27T10:11:11;102443.00;;;12.30
37536;BMP180;23379;51.554;6.736;2023-02-27T10:13:56;102443.00;;;12.30
37536;BMP180;23379;51.554;6.736;2023-02-27T10:16:24;102374.00;;;12.60
37536;BMP180;23379;51.554;6.736;2023-02-27T10:19:13;102450.00;;;13.00
37536;BMP180;23379;51.554;6.736;2023-02-27T10:21:43;102451.00;;;14.00
37536;BMP180;23379;51.554;6.736;2023-02-27T10:24:33;102440.00;;;12.50
37536;BMP180;23379;51.554;6.736;2023-02-27T10:27:02;102449.00;;;13.60
37536;BMP180;23379;51.554;6.736;2023-02-27T10:29:36;102447.00;;;15.10
37536;BMP180;23379;51.554;6.736;2023-02-27T10:32:27;102429.00;;;14.20
37536;BMP180;23379;51.554;6.736;2023-02-27T10:37:53;102439.00;;;12.30
37536;BMP180;23379;51.554;6.736;2023-02-27T10:40:20;102451.00;;;12.10
37536;BMP180;23379;51.554;6.736;2023-02-27T10:42:46;102446.00;;;12.30
37536;BMP180;23379;51.554;6.736;2023-02-27T10:45:14;102435.00;;;12.90
37536;BMP180;23379;51.554;6.736;2023-02-27T10:47:41;102420.00;;;12.40
37536;BMP180;23379;51.554;6.736;2023-02-27T10:50:27;102417.00;;;13.30
37536;BMP180;23379;51.554;6.736;2023-02-27T10:52:58;102438.00;;;12.70
37536;BMP180;23379;51.554;6.736;2023-02-27T10:55:28;102420.00;;;9.70
37536;BMP180;23379;51.554;6.736;2023-02-27T10:57:55;102406.00;;;11.80
37536;BMP180;23379;51.554;6.736;2023-02-27T11:00:26;102404.00;;;12.00
37536;BMP180;23379;51.554;6.736;2023-02-27T11:02:52;102420.00;;;13.60
37536;BMP180;23379;51.554;6.736;2023-02-27T11:07:48;102426.00;;;13.40
37536;BMP180;23379;51.554;6.736;2023-02-27T11:10:17;102443.00;;;13.60
37536;BMP180;23379;51.554;6.736;2023-02-27T11:13:04;102447.00;;;12.50
37536;BMP180;23379;51.554;6.736;2023-02-27T11:15:32;102442.00;;;13.10
37536;BMP180;23379;51.554;6.736;2023-02-27T11:20:44;102421.00;;;12.50
37536;BMP180;23379;51.554;6.736;2023-02-27T11:25:43;102446.00;;;14.10
37536;BMP180;23379;51.554;6.736;2023-02-27T11:28:28;102440.00;;;13.60
37536;BMP180;23379;51.554;6.736;2023-02-27T11:31:03;102418.00;;;14.50
37536;BMP180;23379;51.554;6.736;2023-02-27T11:33:37;102403.00;;;14.90
37536;BMP180;23379;51.554;6.736;2023-02-27T11:36:03;102425.00;;;15.90
37536;BMP180;23379;51.554;6.736;2023-02-27T11:38:29;102423.00;;;16.20
37536;BMP180;23379;51.554;6.736;2023-02-27T11:41:01;102426.00;;;14.40
37536;BMP180;23379;51.554;6.736;2023-02-27T11:43:28;102417.00;;;12.70
37536;BMP180;23379;51.554;6.736;2023-02-27T11:46:00;102426.00;;;12.50
37536;BMP180;23379;51.554;6.736;2023-02-27T11:56:44;102398.00;;;11.40
37536;BMP180;23379;51.554;6.736;2023-02-27T12:01:50;102406.00;;;11.60
37536;BMP180;23379;51.554;6.736;2023-02-27T12:04:23;102402.00;;;11.90
37536;BMP180;23379;51.554;6.736;2023-02-27T12:06:58;102374.00;;;10.90
37536;BMP180;23379;51.554;6.736;2023-02-27T12:09:42;102403.00;;;12.90
37536;BMP180;23379;51.554;6.736;2023-02-27T12:21:17;102397.00;;;11.20
37536;BMP180;23379;51.554;6.736;2023-02-27T12:23:52;102384.00;;;12.20
37536;BMP180;23379;51.554;6.736;2023-02-27T12:26:41;102364.00;;;11.30
37536;BMP180;23379;51.554;6.736;2023-02-27T12:29:24;102394.00;;;11.80
37536;BMP180;23379;51.554;6.736;2023-02-27T12:31:51;102357.00;;;14.00
37536;BMP180;23379;51.554;6.736;2023-02-27T12:34:27;102388.00;;;15.00
37536;BMP180;23379;51.554;6.736;2023-02-27T12:37:00;102387.00;;;16.30
37536;BMP180;23379;51.554;6.736;2023-02-27T12:39:27;102369.00;;;16.00
37536;BMP180;23379;51.554;6.736;2023-02-27T12:42:17;102346.00;;;14.90
37536;BMP180;23379;51.554;6.736;2023-02-27T12:45:16;102381.00;;;15.00
37536;BMP180;23379;51.554;6.736;2023-02-27T12:50:20;102369.00;;;15.80
37536;BMP180;23379;51.554;6.736;2023-02-27T12:55:26;102347.00;;;13.60
37536;BMP180;23379;51.554;6.736;2023-02-27T13:01:05;102364.00;;;13.50
37536;BMP180;23379;51.554;6.736;2023-02-27T13:03:58;102373.00;;;14.30
37536;BMP180;23379;51.554;6.736;2023-02-27T13:06:48;102385.00;;;12.80
37536;BMP180;23379;51.554;6.736;2023-02-27T13:14:58;102334.00;;;12.50
37536;BMP180;23379;51.554;6.736;2023-02-27T13:19:58;102374.00;;;14.00
37536;BMP180;23379;51.554;6.736;2023-02-27T13:22:36;102374.00;;;13.30
37536;BMP180;23379;51.554;6.736;2023-02-27T13:25:11;102369.00;;;15.00
37536;BMP180;23379;51.554;6.736;2023-02-27T13:27:43;102364.00;;;14.40
37536;BMP180;23379;51.554;6.736;2023-02-27T13:30:14;102328.00;;;14.70
37536;BMP180;23379;51.554;6.736;2023-02-27T13:45:58;102363.00;;;9.20
37536;BMP180;23379;51.554;6.736;2023-02-27T13:50:59;102332.00;;;12.00
37536;BMP180;23379;51.554;6.736;2023-02-27T13:53:25;102362.00;;;9.90
37536;BMP180;23379;51.554;6.736;2023-02-27T13:56:16;102308.00;;;11.20
37536;BMP180;23379;51.554;6.736;2023-02-27T13:58:41;102312.00;;;13.10
37536;BMP180;23379;51.554;6.736;2023-02-27T14:01:16;102359.00;;;13.50
37536;BMP180;23379;51.554;6.736;2023-02-27T14:03:55;102361.00;;;13.00
37536;BMP180;23379;51.554;6.736;2023-02-27T14:06:24;102360.00;;;12.80
37536;BMP180;23379;51.554;6.736;2023-02-27T14:08:51;102320.00;;;13.30
37536;BMP180;23379;51.554;6.736;2023-02-27T14:11:27;102347.00;;;13.90
37536;BMP180;23379;51.554;6.736;2023-02-27T14:19:49;102335.00;;;13.10
37536;BMP180;23379;51.554;6.736;2023-02-27T14:22:40;102350.00;;;13.30
37536;BMP180;23379;51.554;6.736;2023-02-27T14:24:54;102357.00;;;14.00
37536;BMP180;23379;51.554;6.736;2023-02-27T14:27:23;102286.00;;;11.60
37536;BMP180;23379;51.554;6.736;2023-02-27T14:29:57;102337.00;;;12.50
37536;BMP180;23379;51.554;6.736;2023-02-27T14:32:29;102356.00;;;10.80
37536;BMP180;23379;51.554;6.736;2023-02-27T14:34:55;102290.00;;;10.10
37536;BMP180;23379;51.554;6.736;2023-02-27T14:37:22;102349.00;;;9.60
37536;BMP180;23379;51.554;6.736;2023-02-27T14:39:52;102366.00;;;10.30
37536;BMP180;23379;51.554;6.736;2023-02-27T14:44:45;102337.00;;;10.50
37536;BMP180;23379;51.554;6.736;2023-02-27T14:47:38;102347.00;;;9.50
37536;BMP180;23379;51.554;6.736;2023-02-27T14:50:18;102313.00;;;8.80
37536;BMP180;23379;51.554;6.736;2023-02-27T14:52:44;102319.00;;;8.30
37536;BMP180;23379;51.554;6.736;2023-02-27T14:55:17;102348.00;;;8.10
37536;BMP180;23379;51.554;6.736;2023-02-27T15:00:45;102345.00;;;7.60
37536;BMP180;23379;51.554;6.736;2023-02-27T15:03:18;102346.00;;;7.50
37536;BMP180;23379;51.554;6.736;2023-02-27T15:05:46;102359.00;;;7.30
37536;BMP180;23379;51.554;6.736;2023-02-27T15:08:18;102301.00;;;7.70
37536;BMP180;23379;51.554;6.736;2023-02-27T15:10:45;102325.00;;;7.60
37536;BMP180;23379;51.554;6.736;2023-02-27T15:13:29;102318.00;;;7.50
37536;BMP180;23379;51.554;6.736;2023-02-27T15:19:14;102349.00;;;6.80
37536;BMP180;23379;51.554;6.736;2023-02-27T15:21:46;102360.00;;;7.00
37536;BMP180;23379;51.554;6.736;2023-02-27T15:27:02;102344.00;;;6.40
37536;BMP180;23379;51.554;6.736;2023-02-27T15:29:34;102279.00;;;6.70
37536;BMP180;23379;51.554;6.736;2023-02-27T15:32:02;102357.00;;;7.00
37536;BMP180;23379;51.554;6.736;2023-02-27T15:34:28;102355.00;;;7.00
37536;BMP180;23379;51.554;6.736;2023-02-27T15:36:55;102353.00;;;7.00
37536;BMP180;23379;51.554;6.736;2023-02-27T15:39:23;102343.00;;;6.70
37536;BMP180;23379;51.554;6.736;2023-02-27T15:42:02;102280.00;;;6.00
37536;BMP180;23379;51.554;6.736;2023-02-27T15:44:42;102311.00;;;6.00
37536;BMP180;23379;51.554;6.736;2023-02-27T15:47:11;102345.00;;;6.10
37536;BMP180;23379;51.554;6.736;2023-02-27T15:49:37;102340.00;;;5.90
37536;BMP180;23379;51.554;6.736;2023-02-27T15:52:22;102352.00;;;6.20
37536;BMP180;23379;51.554;6.736;2023-02-27T15:55:03;102353.00;;;6.30
37536;BMP180;23379;51.554;6.736;2023-02-27T15:57:30;102362.00;;;6.20
37536;BMP180;23379;51.554;6.736;2023-02-27T15:59:58;102352.00;;;6.30
37536;BMP180;23379;51.554;6.736;2023-02-27T16:02:39;102357.00;;;6.60
37536;BMP180;23379;51.554;6.736;2023-02-27T16:05:19;102336.00;;;6.40
37536;BMP180;23379;51.554;6.736;2023-02-27T16:07:46;102353.00;;;6.20
37536;BMP180;23379;51.554;6.736;2023-02-27T16:10:21;102365.00;;;6.30
37536;BMP180;23379;51.554;6.736;2023-02-27T16:12:47;102349.00;;;6.60
37536;BMP180;23379;51.554;6.736;2023-02-27T16:23:13;102352.00;;;6.00
37536;BMP180;23379;51.554;6.736;2023-02-27T16:25:40;102356.00;;;5.90
37536;BMP180;23379;51.554;6.736;2023-02-27T16:28:13;102347.00;;;5.90
37536;BMP180;23379;51.554;6.736;2023-02-27T16:30:39;102336.00;;;5.80
37536;BMP180;23379;51.554;6.736;2023-02-27T16:33:14;102350.00;;;5.60
37536;BMP180;23379;51.554;6.736;2023-02-27T16:35:43;102353.00;;;5.50
37536;BMP180;23379;51.554;6.736;2023-02-27T16:38:10;102332.00;;;5.60
37536;BMP180;23379;51.554;6.736;2023-02-27T16:40:36;102362.00;;;5.50
37536;BMP180;23379;51.554;6.736;2023-02-27T16:43:01;102356.00;;;5.60
37536;BMP180;23379;51.554;6.736;2023-02-27T16:45:28;102352.00;;;5.60
37536;BMP180;23379;51.554;6.736;2023-02-27T16:47:55;102390.00;;;5.50
37536;BMP180;23379;51.554;6.736;2023-02-27T16:52:53;102382.00;;;5.70
37536;BMP180;23379;51.554;6.736;2023-02-27T16:55:18;102366.00;;;5.60